Time;durP1;ratioP1;P1;durP2;ratioP2;P2;SDS_P1;SDS_P2;PMS_P1;PMS_P2;Temp;Humidity;BMP_temperature;BMP_pressure;BME280_temperature;BME280_humidity;BME280_pressure;Samples;Min_cycle;Max_cycle;Signal;HPM_P1;HPM_P2
2023/03/26 00:00:58;;;;;;;5.20;2.33;;;10.10;99.90;;;;;;5074606;28;20539;-51
2023/03/26 00:03:28;;;;;;;3.70;2.20;;;11.20;99.90;;;;;;5074609;28;20434;-50
2023/03/26 00:06:03;;;;;;;9.03;5.50;;;10.90;99.90;;;;;;5074670;28;20451;-50
2023/03/26 00:08:29;;;;;;;3.90;2.73;;;10.40;99.90;;;;;;5074121;28;20433;-48
2023/03/26 00:10:56;;;;;;;5.83;2.80;;;10.20;99.90;;;;;;5074708;28;20437;-51
2023/03/26 00:13:22;;;;;;;3.73;2.63;;;10.40;99.90;;;;;;5074945;28;20958;-47
2023/03/26 00:15:49;;;;;;;3.23;2.23;;;11.00;99.90;;;;;;5075218;28;20490;-48
2023/03/26 00:18:18;;;;;;;3.20;2.20;;;10.50;99.90;;;;;;5074657;28;20846;-48
2023/03/26 00:20:47;;;;;;;3.20;2.53;;;11.00;99.90;;;;;;5074784;28;20516;-48
2023/03/26 00:23:14;;;;;;;4.77;2.70;;;10.70;99.90;;;;;;5074774;28;20431;-48
2023/03/26 00:25:42;;;;;;;4.07;2.40;;;10.90;99.90;;;;;;5074434;28;20431;-49
2023/03/26 00:28:09;;;;;;;5.50;2.57;;;10.40;99.90;;;;;;5073896;28;20935;-50
2023/03/26 00:30:36;;;;;;;5.37;3.00;;;10.30;99.90;;;;;;5074125;28;20410;-48
2023/03/26 00:33:03;;;;;;;6.07;2.83;;;10.70;99.90;;;;;;5055738;28;20451;-50
2023/03/26 00:35:29;;;;;;;5.90;2.27;;;10.60;99.90;;;;;;5055874;28;20822;-48
2023/03/26 00:37:58;;;;;;;8.20;2.77;;;10.80;99.90;;;;;;5073544;28;20411;-48
2023/03/26 00:40:25;;;;;;;2.80;1.80;;;10.60;99.90;;;;;;5055755;28;20524;-49
2023/03/26 00:42:52;;;;;;;3.60;2.10;;;10.60;99.90;;;;;;5073977;28;20430;-49
2023/03/26 00:45:20;;;;;;;3.67;2.20;;;10.60;99.90;;;;;;5073855;28;20536;-48
2023/03/26 00:47:47;;;;;;;6.13;2.63;;;10.70;99.90;;;;;;5073988;28;20446;-47
2023/03/26 00:50:15;;;;;;;4.80;2.13;;;10.90;99.90;;;;;;5073791;28;20430;-48
2023/03/26 00:52:42;;;;;;;3.73;2.00;;;10.80;99.90;;;;;;5055744;28;20451;-48
2023/03/26 00:55:10;;;;;;;4.30;1.87;;;10.60;99.90;;;;;;5055638;28;20469;-46
2023/03/26 00:57:39;;;;;;;6.40;2.10;;;10.30;99.90;;;;;;5073718;28;20427;-50
2023/03/26 01:00:10;;;;;;;2.20;1.60;;;10.30;99.90;;;;;;5073178;28;20979;-47
2023/03/26 01:02:36;;;;;;;3.60;1.73;;;10.40;99.90;;;;;;5073384;28;20480;-47
2023/03/26 01:05:41;;;;;;;4.13;1.73;;;10.80;99.90;;;;;;5073347;28;20536;-47
2023/03/26 01:08:17;;;;;;;6.00;1.73;;;10.40;99.90;;;;;;5073420;28;20852;-49
2023/03/26 01:10:49;;;;;;;5.97;1.80;;;10.80;99.90;;;;;;5073644;28;20914;-49
2023/03/26 01:13:17;;;;;;;2.43;1.50;;;10.20;99.90;;;;;;5055261;28;20481;-48
2023/03/26 01:15:48;;;;;;;2.20;1.30;;;10.20;99.90;;;;;;5055214;28;20820;-49
2023/03/26 01:18:15;;;;;;;3.90;1.90;;;10.50;99.90;;;;;;5054799;28;20421;-48
2023/03/26 01:20:45;;;;;;;8.10;1.93;;;10.50;99.90;;;;;;5073288;28;20455;-48
2023/03/26 01:23:16;;;;;;;5.70;2.20;;;10.40;99.90;;;;;;5055322;28;20450;-50
2023/03/26 01:25:52;;;;;;;3.10;1.70;;;10.10;99.90;;;;;;5073611;28;20449;-48
2023/03/26 01:28:19;;;;;;;2.70;1.80;;;10.80;99.90;;;;;;5072836;28;20400;-48
2023/03/26 01:30:57;;;;;;;3.27;2.00;;;10.00;99.90;;;;;;5073192;28;20400;-49
2023/03/26 01:33:32;;;;;;;5.77;2.00;;;10.90;99.90;;;;;;5072859;28;20429;-48
2023/03/26 01:36:02;;;;;;;3.90;2.37;;;10.80;99.90;;;;;;5073329;28;20430;-49
2023/03/26 01:38:35;;;;;;;3.27;1.80;;;10.40;99.90;;;;;;5054770;28;20442;-48
2023/03/26 01:41:10;;;;;;;5.40;1.60;;;10.30;99.90;;;;;;5072876;28;20558;-48
2023/03/26 01:43:43;;;;;;;4.03;1.70;;;10.30;99.90;;;;;;5054917;28;20465;-48
2023/03/26 01:46:12;;;;;;;3.03;2.07;;;10.20;99.90;;;;;;5072581;28;20442;-47
2023/03/26 01:48:40;;;;;;;4.67;1.80;;;10.30;99.90;;;;;;5053697;28;20517;-48
2023/03/26 01:51:08;;;;;;;5.17;1.67;;;10.50;99.90;;;;;;5072395;28;20457;-48
2023/03/26 01:53:38;;;;;;;2.00;1.50;;;10.20;99.90;;;;;;5054574;28;20444;-48
2023/03/26 01:56:12;;;;;;;4.37;1.80;;;10.20;99.90;;;;;;5072873;28;20784;-47
2023/03/26 01:58:49;;;;;;;3.90;1.80;;;10.30;99.90;;;;;;5072326;28;20465;-47
2023/03/26 02:01:26;;;;;;;2.20;1.33;;;10.40;99.90;;;;;;5072296;28;20468;-48
2023/03/26 02:03:58;;;;;;;4.97;1.57;;;10.20;99.90;;;;;;5054372;28;20494;-47
2023/03/26 02:06:30;;;;;;;3.87;1.60;;;10.00;99.90;;;;;;5072719;28;20444;-47
2023/03/26 02:09:02;;;;;;;3.20;2.20;;;10.40;99.90;;;;;;5054040;28;20922;-49
2023/03/26 02:11:30;;;;;;;3.53;1.43;;;10.30;99.90;;;;;;5054501;28;20988;-48
2023/03/26 02:13:58;;;;;;;2.67;1.20;;;10.30;99.90;;;;;;5072292;28;20449;-47
2023/03/26 02:16:24;;;;;;;3.10;1.30;;;10.60;99.90;;;;;;5053843;28;20450;-48
2023/03/26 02:18:54;;;;;;;2.30;1.50;;;10.40;99.90;;;;;;5053836;28;20962;-51
2023/03/26 02:21:24;;;;;;;2.10;1.13;;;10.30;99.90;;;;;;5054260;28;20483;-47
2023/03/26 02:24:01;;;;;;;3.30;1.30;;;10.20;99.90;;;;;;5054290;28;20473;-49
2023/03/26 02:26:31;;;;;;;3.10;1.80;;;10.00;99.90;;;;;;5054321;28;20484;-47
2023/03/26 02:29:07;;;;;;;2.20;1.60;;;10.30;99.90;;;;;;5053777;28;20445;-51
2023/03/26 02:31:36;;;;;;;2.93;1.60;;;10.30;99.90;;;;;;5053860;28;20454;-48
2023/03/26 02:34:03;;;;;;;3.13;1.50;;;9.30;99.90;;;;;;5072097;28;20806;-48
2023/03/26 02:36:34;;;;;;;2.70;1.77;;;9.70;99.90;;;;;;5054073;28;20464;-48
2023/03/26 02:39:04;;;;;;;3.03;1.43;;;9.80;99.90;;;;;;5053677;28;20500;-48
2023/03/26 02:41:36;;;;;;;6.53;2.10;;;10.00;99.90;;;;;;5054194;28;20478;-48
2023/03/26 02:44:08;;;;;;;5.53;1.70;;;9.70;99.90;;;;;;5054089;28;20818;-46
2023/03/26 02:47:10;;;;;;;3.50;2.27;;;9.70;99.90;;;;;;5071926;28;20445;-47
2023/03/26 02:49:52;;;;;;;2.50;2.07;;;9.90;99.90;;;;;;5071829;28;20883;-50
2023/03/26 02:52:34;;;;;;;2.70;1.83;;;9.90;99.90;;;;;;5054376;28;20489;-48
2023/03/26 02:55:01;;;;;;;4.50;1.90;;;9.60;99.90;;;;;;5054184;28;20504;-48
2023/03/26 02:57:30;;;;;;;3.50;1.80;;;9.60;99.90;;;;;;5054102;28;20453;-48
2023/03/26 03:00:12;;;;;;;7.77;2.40;;;9.70;99.90;;;;;;5072844;28;20781;-48
2023/03/26 03:02:38;;;;;;;8.10;2.17;;;9.60;99.90;;;;;;5078764;28;20934;-49
2023/03/26 03:05:30;;;;;;;3.40;2.17;;;9.70;99.90;;;;;;5078176;28;20488;-48
2023/03/26 03:08:20;;;;;;;4.10;2.20;;;9.80;99.90;;;;;;5069810;28;20453;-48
2023/03/26 03:11:03;;;;;;;4.40;2.67;;;10.00;99.90;;;;;;5060757;28;20428;-48
2023/03/26 03:13:39;;;;;;;3.40;2.00;;;9.80;99.90;;;;;;5060400;28;20469;-47
2023/03/26 03:16:07;;;;;;;7.57;2.00;;;9.60;99.90;;;;;;5060257;28;20460;-48
2023/03/26 03:18:34;;;;;;;3.20;2.03;;;9.80;99.90;;;;;;5060078;28;20422;-47
2023/03/26 03:21:01;;;;;;;4.73;2.23;;;9.90;99.90;;;;;;5060150;28;20477;-48
2023/03/26 03:23:28;;;;;;;3.63;2.00;;;9.90;99.90;;;;;;5060157;28;21057;-47
2023/03/26 03:26:09;;;;;;;4.10;2.27;;;9.80;99.90;;;;;;5060320;28;20950;-47
2023/03/26 03:28:39;;;;;;;9.77;2.20;;;10.10;99.90;;;;;;5059907;28;20423;-47
2023/03/26 03:31:07;;;;;;;5.73;1.90;;;9.70;99.90;;;;;;5059940;28;20445;-48
2023/03/26 03:33:34;;;;;;;4.83;2.10;;;9.90;99.90;;;;;;5060186;28;20466;-48
2023/03/26 03:36:05;;;;;;;3.73;2.30;;;10.10;99.90;;;;;;5078200;28;20413;-48
2023/03/26 03:38:32;;;;;;;3.70;2.37;;;9.80;99.90;;;;;;5059929;28;20453;-47
2023/03/26 03:40:59;;;;;;;4.73;1.97;;;9.90;99.90;;;;;;5059979;28;20561;-49
2023/03/26 03:43:28;;;;;;;5.47;2.40;;;9.90;99.90;;;;;;5059959;28;20471;-47
2023/03/26 03:46:05;;;;;;;5.53;2.37;;;9.80;99.90;;;;;;5060025;28;20438;-48
2023/03/26 03:48:48;;;;;;;6.33;2.57;;;10.30;99.90;;;;;;5059800;28;20442;-51
2023/03/26 03:51:16;;;;;;;3.00;2.70;;;9.70;99.90;;;;;;5060093;28;20541;-47
2023/03/26 03:53:51;;;;;;;3.60;2.20;;;10.40;99.90;;;;;;5060037;28;20488;-47
2023/03/26 03:56:27;;;;;;;3.60;2.50;;;9.90;99.90;;;;;;5059979;28;20454;-51
2023/03/26 03:59:20;;;;;;;10.30;2.90;;;9.80;99.90;;;;;;5059548;28;20453;-47
2023/03/26 04:01:49;;;;;;;2.90;2.43;;;9.90;99.90;;;;;;5059771;28;20504;-48
2023/03/26 04:04:36;;;;;;;4.10;2.83;;;9.40;99.90;;;;;;5066619;28;20472;-48
2023/03/26 04:07:05;;;;;;;3.97;2.67;;;10.30;99.90;;;;;;5059940;28;20449;-47
2023/03/26 04:09:41;;;;;;;6.60;2.83;;;10.00;99.90;;;;;;5059607;28;20867;-46
2023/03/26 04:12:14;;;;;;;3.80;2.93;;;9.90;99.90;;;;;;5057389;28;20453;-48
2023/03/26 04:15:03;;;;;;;5.07;2.23;;;10.20;99.90;;;;;;5056554;28;20555;-47
2023/03/26 04:17:32;;;;;;;6.13;2.90;;;10.00;99.90;;;;;;5056584;28;20557;-47
2023/03/26 04:20:09;;;;;;;7.37;3.20;;;9.80;99.90;;;;;;5056393;28;20486;-48
2023/03/26 04:22:36;;;;;;;5.30;2.50;;;10.00;99.90;;;;;;5056657;28;20444;-46
2023/03/26 04:25:06;;;;;;;5.50;2.80;;;9.90;99.90;;;;;;5056421;28;20459;-47
2023/03/26 04:28:05;;;;;;;6.17;2.73;;;10.10;99.90;;;;;;5051501;28;20457;-47
2023/03/26 04:30:43;;;;;;;6.40;3.60;;;9.80;99.90;;;;;;5056445;28;20449;-47
2023/03/26 04:33:33;;;;;;;3.07;2.60;;;10.00;99.90;;;;;;5074619;28;20490;-47
2023/03/26 04:36:01;;;;;;;8.87;2.57;;;10.10;99.90;;;;;;5074410;28;20893;-49
2023/03/26 04:38:34;;;;;;;3.97;2.67;;;9.80;99.90;;;;;;5056066;28;20445;-48
2023/03/26 04:41:06;;;;;;;8.10;2.63;;;9.90;99.90;;;;;;5056263;28;20451;-49
2023/03/26 04:43:49;;;;;;;4.43;2.40;;;10.00;99.90;;;;;;5056004;28;20452;-48
2023/03/26 04:46:42;;;;;;;6.17;2.23;;;9.50;99.90;;;;;;5070725;28;20457;-47
2023/03/26 04:49:25;;;;;;;3.97;2.20;;;10.10;99.90;;;;;;5055836;28;20998;-48
2023/03/26 04:51:52;;;;;;;6.27;2.10;;;9.50;99.90;;;;;;5073910;28;20422;-46
2023/03/26 04:54:38;;;;;;;5.00;2.00;;;10.30;99.90;;;;;;5074117;28;20423;-47
2023/03/26 04:57:15;;;;;;;3.73;2.07;;;9.80;99.90;;;;;;5055934;28;20869;-48
2023/03/26 04:59:46;;;;;;;5.20;2.30;;;9.80;99.90;;;;;;5073671;28;20428;-47
2023/03/26 05:02:14;;;;;;;6.13;2.13;;;9.60;99.90;;;;;;5055758;28;20489;-47
2023/03/26 05:04:50;;;;;;;5.33;2.10;;;10.30;99.90;;;;;;5056191;28;20485;-50
2023/03/26 05:07:19;;;;;;;2.37;1.73;;;10.30;99.90;;;;;;5055634;28;20454;-51
2023/03/26 05:09:49;;;;;;;5.27;2.03;;;9.80;99.90;;;;;;5055169;28;20443;-52
2023/03/26 05:12:22;;;;;;;3.43;2.03;;;9.80;99.90;;;;;;5055624;28;20449;-51
2023/03/26 05:14:57;;;;;;;4.50;2.40;;;9.80;99.90;;;;;;5055795;28;20470;-52
2023/03/26 05:17:40;;;;;;;4.93;2.07;;;9.90;99.90;;;;;;5055671;28;20770;-52
2023/03/26 05:20:19;;;;;;;4.07;2.17;;;10.50;99.90;;;;;;5055198;28;20893;-52
2023/03/26 05:22:46;;;;;;;3.83;1.87;;;9.80;99.90;;;;;;5055376;28;20485;-52
2023/03/26 05:25:22;;;;;;;4.63;1.97;;;9.90;99.90;;;;;;5055405;28;20469;-52
2023/03/26 05:27:49;;;;;;;4.63;2.07;;;10.10;99.90;;;;;;5055078;28;20957;-51
2023/03/26 05:30:18;;;;;;;6.20;2.30;;;9.80;99.90;;;;;;5054957;28;20523;-53
2023/03/26 05:32:48;;;;;;;6.20;2.00;;;10.10;99.90;;;;;;5055253;28;20545;-52
2023/03/26 05:35:19;;;;;;;4.10;2.00;;;9.90;99.90;;;;;;5055214;28;20689;-51
2023/03/26 05:37:48;;;;;;;3.73;1.90;;;10.20;99.90;;;;;;5055107;28;20435;-51
2023/03/26 05:40:17;;;;;;;4.20;2.00;;;10.10;99.90;;;;;;5055009;28;20446;-51
2023/03/26 05:42:47;;;;;;;4.47;2.40;;;10.00;99.90;;;;;;5054955;28;20456;-52
2023/03/26 05:45:33;;;;;;;5.63;2.53;;;10.40;99.90;;;;;;5055292;28;20449;-53
2023/03/26 05:48:09;;;;;;;4.93;2.80;;;9.80;99.90;;;;;;5054605;28;20431;-51
2023/03/26 05:50:37;;;;;;;5.60;2.40;;;10.20;99.90;;;;;;5054864;28;20452;-51
2023/03/26 05:53:04;;;;;;;3.60;2.30;;;10.70;99.90;;;;;;5072756;28;20451;-52
2023/03/26 05:55:54;;;;;;;4.63;2.53;;;10.10;99.90;;;;;;5072871;28;20414;-50
2023/03/26 05:58:50;;;;;;;6.97;2.53;;;10.30;99.90;;;;;;5017586;28;20502;-51
2023/03/26 06:01:53;;;;;;;5.30;2.60;;;10.50;99.90;;;;;;5010537;28;20488;-52
2023/03/26 06:04:55;;;;;;;4.73;2.47;;;10.20;99.90;;;;;;5072174;28;20462;-52
2023/03/26 06:07:59;;;;;;;5.40;2.53;;;10.10;99.90;;;;;;5059648;28;20457;-52
2023/03/26 06:10:36;;;;;;;8.77;3.33;;;10.00;99.90;;;;;;5054512;28;20432;-52
2023/03/26 06:13:03;;;;;;;3.33;2.60;;;9.90;99.90;;;;;;5054420;28;20456;-52
2023/03/26 06:15:30;;;;;;;4.13;2.40;;;10.10;99.90;;;;;;5072323;28;20449;-51
2023/03/26 06:18:01;;;;;;;4.13;2.90;;;10.10;99.90;;;;;;5054197;28;20941;-51
2023/03/26 06:20:41;;;;;;;4.70;2.37;;;9.80;99.90;;;;;;5054559;28;20424;-52
2023/03/26 06:23:18;;;;;;;4.17;2.60;;;10.00;99.90;;;;;;5054501;28;20531;-52
2023/03/26 06:26:04;;;;;;;5.43;1.87;;;9.60;99.90;;;;;;5072217;28;20421;-52
2023/03/26 06:28:51;;;;;;;2.73;1.60;;;9.70;99.90;;;;;;5060827;28;20417;-51
2023/03/26 06:31:32;;;;;;;2.90;1.50;;;9.80;99.90;;;;;;5054287;28;20431;-52
2023/03/26 06:34:18;;;;;;;3.10;1.27;;;9.90;99.90;;;;;;5072218;28;20431;-53
2023/03/26 06:36:44;;;;;;;2.53;1.27;;;9.60;99.90;;;;;;5053914;28;20474;-53
2023/03/26 06:39:12;;;;;;;2.20;1.43;;;9.80;99.90;;;;;;5054443;28;20449;-51
2023/03/26 06:41:47;;;;;;;2.83;1.43;;;9.60;99.90;;;;;;5054975;28;20870;-51
2023/03/26 06:44:35;;;;;;;6.97;1.80;;;9.90;99.90;;;;;;5054789;28;20470;-53
2023/03/26 06:47:20;;;;;;;6.43;2.67;;;9.70;99.90;;;;;;5073072;28;20477;-53
2023/03/26 06:49:49;;;;;;;5.10;2.00;;;9.80;99.90;;;;;;5072080;28;20533;-52
2023/03/26 06:52:50;;;;;;;3.00;1.70;;;9.30;99.90;;;;;;5071929;28;20401;-52
2023/03/26 06:55:36;;;;;;;5.00;1.40;;;9.40;99.90;;;;;;5053760;28;20464;-51
2023/03/26 06:58:07;;;;;;;2.90;1.70;;;9.70;99.90;;;;;;5053578;28;20446;-50
2023/03/26 07:01:03;;;;;;;6.27;1.77;;;10.30;99.90;;;;;;5071840;28;20437;-52
2023/03/26 07:03:48;;;;;;;4.37;1.87;;;10.10;99.90;;;;;;5071634;28;20457;-51
2023/03/26 07:06:33;;;;;;;3.90;1.70;;;10.30;99.90;;;;;;5071704;28;20460;-51
2023/03/26 07:09:19;;;;;;;4.73;2.30;;;10.00;99.90;;;;;;5071519;28;20486;-52
2023/03/26 07:12:19;;;;;;;6.27;2.50;;;9.80;99.90;;;;;;5071553;28;20445;-52
2023/03/26 07:15:15;;;;;;;6.20;2.10;;;10.60;99.90;;;;;;5071301;28;20826;-52
2023/03/26 07:17:53;;;;;;;5.40;1.80;;;10.70;99.90;;;;;;5071421;28;20404;-52
2023/03/26 07:20:27;;;;;;;4.43;2.60;;;10.40;99.90;;;;;;5053248;28;21028;-52
2023/03/26 07:22:54;;;;;;;6.57;2.17;;;10.60;99.90;;;;;;5071508;28;20887;-51
2023/03/26 07:25:39;;;;;;;4.07;2.00;;;11.00;99.90;;;;;;5053337;28;20985;-50
2023/03/26 07:28:33;;;;;;;4.30;2.30;;;10.60;99.90;;;;;;5053122;28;20519;-51
2023/03/26 07:31:25;;;;;;;7.60;2.00;;;10.80;99.90;;;;;;5053493;28;20526;-51
2023/03/26 07:34:39;;;;;;;4.03;1.90;;;10.90;99.90;;;;;;5054989;28;20978;-51
2023/03/26 07:37:43;;;;;;;4.40;2.00;;;10.70;99.90;;;;;;5053362;28;20454;-51
2023/03/26 07:40:46;;;;;;;8.33;1.80;;;10.90;99.90;;;;;;5053120;28;20528;-50
2023/03/26 07:43:47;;;;;;;5.43;2.27;;;11.00;99.90;;;;;;5071355;28;20485;-51
2023/03/26 07:46:35;;;;;;;5.77;2.20;;;11.40;99.90;;;;;;5053246;28;20774;-53
2023/03/26 07:49:21;;;;;;;3.00;1.90;;;11.30;99.90;;;;;;5074976;28;20939;-51
2023/03/26 07:52:13;;;;;;;4.17;2.07;;;11.40;99.90;;;;;;5056961;28;20461;-52
2023/03/26 07:54:59;;;;;;;6.33;2.13;;;11.50;99.90;;;;;;5074893;28;20655;-53
2023/03/26 07:57:55;;;;;;;7.10;2.60;;;11.20;99.90;;;;;;5074897;28;20426;-53
2023/03/26 08:00:42;;;;;;;11.53;3.40;;;11.10;99.90;;;;;;5056407;28;20527;-51
2023/03/26 08:03:26;;;;;;;5.33;3.03;;;11.60;99.90;;;;;;5056264;28;20497;-50
2023/03/26 08:06:30;;;;;;;5.33;2.20;;;11.30;99.90;;;;;;5074536;28;20443;-51
2023/03/26 08:09:13;;;;;;;9.53;2.77;;;11.70;99.90;;;;;;5056644;28;20544;-52
2023/03/26 08:12:10;;;;;;;6.63;2.20;;;11.50;99.90;;;;;;5066160;28;20421;-51
2023/03/26 08:14:50;;;;;;;5.10;2.50;;;11.20;99.90;;;;;;5074202;28;20455;-53
2023/03/26 08:17:27;;;;;;;5.77;2.00;;;11.40;99.90;;;;;;5056671;28;20946;-53
2023/03/26 08:20:06;;;;;;;6.10;1.60;;;11.80;99.90;;;;;;5074382;28;20438;-52
2023/03/26 08:22:35;;;;;;;4.23;2.03;;;11.40;99.90;;;;;;5056371;28;20466;-52
2023/03/26 08:25:18;;;;;;;5.50;2.00;;;11.90;99.90;;;;;;5074152;28;20434;-50
2023/03/26 08:27:52;;;;;;;5.23;2.67;;;11.10;99.90;;;;;;5073861;28;20458;-54
2023/03/26 08:30:22;;;;;;;4.67;1.80;;;11.80;99.90;;;;;;5073695;28;20432;-51
2023/03/26 08:32:55;;;;;;;5.20;2.40;;;11.60;99.90;;;;;;5074031;28;20410;-52
2023/03/26 08:35:22;;;;;;;7.80;2.53;;;11.80;99.90;;;;;;5073939;28;20422;-52
2023/03/26 08:37:50;;;;;;;3.70;2.57;;;11.70;99.90;;;;;;5073735;28;20412;-52
2023/03/26 08:40:38;;;;;;;4.10;2.17;;;11.30;99.90;;;;;;5073626;28;20415;-52
2023/03/26 08:43:53;;;;;;;7.77;2.50;;;12.10;99.90;;;;;;5074114;28;20809;-53
2023/03/26 08:46:47;;;;;;;4.17;2.00;;;12.00;99.90;;;;;;5026535;28;20431;-51
2023/03/26 08:49:41;;;;;;;5.83;2.10;;;12.40;99.90;;;;;;5073483;28;20920;-50
2023/03/26 08:52:32;;;;;;;5.70;2.73;;;12.20;99.90;;;;;;5073824;28;20803;-53
2023/03/26 08:55:53;;;;;;;6.53;1.73;;;12.10;99.90;;;;;;5073758;28;20808;-52
2023/03/26 08:58:54;;;;;;;5.67;2.40;;;12.00;99.90;;;;;;4974865;28;20999;-51
2023/03/26 09:01:41;;;;;;;6.93;2.47;;;11.80;99.90;;;;;;4992085;28;20844;-52
2023/03/26 09:04:30;;;;;;;8.03;2.87;;;11.60;99.90;;;;;;4991615;28;20844;-52
2023/03/26 09:07:21;;;;;;;5.53;2.77;;;11.40;99.90;;;;;;4991968;28;20439;-52
2023/03/26 09:10:22;;;;;;;7.17;2.40;;;11.30;99.90;;;;;;4975422;28;20524;-52
2023/03/26 09:13:25;;;;;;;9.83;3.80;;;11.50;99.90;;;;;;4991843;28;20464;-52
2023/03/26 09:16:20;;;;;;;10.57;3.17;;;11.20;99.90;;;;;;4975295;28;20462;-52
2023/03/26 09:19:20;;;;;;;5.03;2.43;;;11.10;99.90;;;;;;4991309;28;20417;-52
2023/03/26 09:22:31;;;;;;;3.80;2.30;;;11.40;99.90;;;;;;4991582;28;21015;-52
2023/03/26 09:25:33;;;;;;;8.10;3.00;;;11.50;99.90;;;;;;4991577;28;20455;-53
2023/03/26 09:28:31;;;;;;;6.80;2.90;;;11.20;99.90;;;;;;4991469;28;20434;-52
2023/03/26 09:31:14;;;;;;;6.90;3.07;;;11.20;99.90;;;;;;5073064;28;20445;-51
2023/03/26 09:33:58;;;;;;;5.40;2.00;;;11.30;99.90;;;;;;5072427;28;20442;-51
2023/03/26 09:36:47;;;;;;;5.37;2.10;;;11.10;99.90;;;;;;5073098;28;20449;-52
2023/03/26 09:39:29;;;;;;;4.10;1.80;;;11.00;99.90;;;;;;5054355;28;20461;-52
2023/03/26 09:42:07;;;;;;;6.93;2.27;;;10.70;99.90;;;;;;5072606;28;20815;-53
2023/03/26 09:45:02;;;;;;;3.60;2.50;;;11.10;99.90;;;;;;5072715;28;20814;-51
2023/03/26 09:47:39;;;;;;;5.87;3.10;;;10.60;99.90;;;;;;5072740;28;20931;-51
2023/03/26 09:50:42;;;;;;;5.73;2.33;;;10.80;99.90;;;;;;5072545;28;20478;-52
2023/03/26 09:53:27;;;;;;;6.30;1.93;;;10.40;99.90;;;;;;5048030;28;20943;-52
2023/03/26 09:56:12;;;;;;;3.80;2.60;;;10.30;99.90;;;;;;5072499;28;20521;-51
2023/03/26 09:58:57;;;;;;;8.40;3.10;;;10.10;99.90;;;;;;5054277;28;20436;-53
2023/03/26 10:01:30;;;;;;;3.97;2.20;;;10.10;99.90;;;;;;5072658;28;20419;-51
2023/03/26 10:04:07;;;;;;;3.30;1.83;;;10.20;99.90;;;;;;5072041;28;20497;-52
2023/03/26 10:06:52;;;;;;;7.77;2.57;;;10.20;99.90;;;;;;5072105;28;20429;-50
2023/03/26 10:09:32;;;;;;;3.33;2.23;;;10.10;99.90;;;;;;5053424;28;20500;-51
2023/03/26 10:12:15;;;;;;;6.40;2.97;;;10.30;99.90;;;;;;5072156;28;20803;-51
2023/03/26 10:14:48;;;;;;;6.33;2.43;;;10.20;99.90;;;;;;5072054;28;20983;-50
2023/03/26 10:17:32;;;;;;;6.73;2.47;;;10.00;99.90;;;;;;5071873;28;20438;-52
2023/03/26 10:20:16;;;;;;;7.13;2.37;;;10.50;99.90;;;;;;5071266;28;20445;-51
2023/03/26 10:22:55;;;;;;;4.50;1.90;;;10.20;99.90;;;;;;5071842;28;20465;-55
2023/03/26 10:25:54;;;;;;;7.50;2.10;;;10.60;99.90;;;;;;5053830;28;21003;-52
2023/03/26 10:28:34;;;;;;;5.67;2.33;;;10.60;99.90;;;;;;5038026;28;20527;-52
2023/03/26 10:31:34;;;;;;;6.47;2.33;;;10.90;99.90;;;;;;5071923;28;20790;-51
2023/03/26 10:34:14;;;;;;;4.27;2.53;;;10.60;99.90;;;;;;5053405;28;20468;-53
2023/03/26 10:36:50;;;;;;;7.90;2.90;;;11.10;99.90;;;;;;5071859;28;20795;-52
2023/03/26 10:39:31;;;;;;;5.53;2.47;;;11.10;99.90;;;;;;5053314;28;20454;-52
2023/03/26 10:42:07;;;;;;;7.70;2.80;;;11.00;99.90;;;;;;5071584;28;20447;-53
2023/03/26 10:44:52;;;;;;;8.30;3.20;;;11.30;99.90;;;;;;5071372;28;20501;-53
2023/03/26 10:47:57;;;;;;;15.77;3.53;;;11.30;99.90;;;;;;5071757;28;20800;-53
2023/03/26 10:50:32;;;;;;;6.17;3.20;;;11.10;99.90;;;;;;5071603;28;20423;-51
2023/03/26 10:53:03;;;;;;;5.90;2.83;;;11.10;99.90;;;;;;5071787;28;20865;-52
2023/03/26 10:55:36;;;;;;;8.53;2.93;;;11.00;99.90;;;;;;5071501;28;20441;-52
2023/03/26 10:58:12;;;;;;;10.57;3.30;;;11.00;99.90;;;;;;5053514;28;20418;-53
2023/03/26 11:00:46;;;;;;;8.90;2.60;;;11.20;99.90;;;;;;5071316;28;20916;-52
2023/03/26 11:03:50;;;;;;;7.70;3.30;;;10.80;99.90;;;;;;5070977;28;20466;-51
2023/03/26 11:06:29;;;;;;;7.87;3.20;;;10.80;99.90;;;;;;5040156;22;20486;-49
2023/03/26 11:09:03;;;;;;;8.27;3.17;;;11.10;99.90;;;;;;5011608;28;20925;-49
2023/03/26 11:11:37;;;;;;;9.67;3.20;;;11.10;99.90;;;;;;5011581;28;20480;-48
2023/03/26 11:14:11;;;;;;;6.93;3.30;;;11.50;99.90;;;;;;5011410;28;20776;-50
2023/03/26 11:16:50;;;;;;;5.97;2.70;;;11.30;99.90;;;;;;4974326;28;20454;-50
2023/03/26 11:19:23;;;;;;;7.50;2.67;;;11.50;99.90;;;;;;4991520;28;20436;-48
2023/03/26 11:21:57;;;;;;;6.60;3.40;;;11.30;99.90;;;;;;4993311;28;20438;-49
2023/03/26 11:24:46;;;;;;;6.97;2.83;;;11.20;99.90;;;;;;4996022;28;20467;-50
2023/03/26 11:27:24;;;;;;;5.13;3.13;;;11.70;99.90;;;;;;4978066;28;20545;-47
2023/03/26 11:30:02;;;;;;;8.47;3.23;;;11.50;99.90;;;;;;4995275;28;20439;-47
2023/03/26 11:32:40;;;;;;;8.63;3.37;;;11.80;99.90;;;;;;4978312;28;20431;-48
2023/03/26 11:35:15;;;;;;;8.63;3.10;;;11.60;99.90;;;;;;4995159;28;20458;-48
2023/03/26 11:37:46;;;;;;;5.60;3.07;;;11.80;99.90;;;;;;4995623;28;20426;-48
2023/03/26 11:40:19;;;;;;;7.83;3.20;;;11.80;99.90;;;;;;4995138;28;20533;-50
2023/03/26 11:42:47;;;;;;;10.63;3.43;;;11.40;99.90;;;;;;4995251;28;20437;-49
2023/03/26 11:45:17;;;;;;;6.53;3.67;;;11.60;99.90;;;;;;4994988;28;20425;-47
2023/03/26 11:47:50;;;;;;;8.47;3.20;;;12.00;99.90;;;;;;4995459;28;20449;-49
2023/03/26 11:50:22;;;;;;;4.83;2.90;;;11.70;99.90;;;;;;4995193;28;20427;-48
2023/03/26 11:52:51;;;;;;;7.60;2.93;;;11.50;99.90;;;;;;4977717;28;20462;-48
2023/03/26 11:55:18;;;;;;;7.30;3.33;;;11.90;99.90;;;;;;4994930;28;20555;-49
2023/03/26 11:57:50;;;;;;;6.37;2.53;;;11.90;99.90;;;;;;4995275;28;20539;-50
2023/03/26 12:00:20;;;;;;;8.60;4.10;;;12.10;99.90;;;;;;4995558;28;20782;-50
2023/03/26 12:02:48;;;;;;;7.77;2.80;;;12.60;99.90;;;;;;4994716;28;20479;-51
2023/03/26 12:05:19;;;;;;;6.63;3.23;;;12.40;99.90;;;;;;4995017;28;20488;-47
2023/03/26 12:07:49;;;;;;;8.50;2.93;;;12.70;99.90;;;;;;4995287;28;20437;-48
2023/03/26 12:10:31;;;;;;;6.70;3.40;;;12.40;99.90;;;;;;4995236;28;20530;-47
2023/03/26 12:13:01;;;;;;;9.90;4.73;;;12.90;99.90;;;;;;4978401;28;20470;-48
2023/03/26 12:15:29;;;;;;;6.33;2.73;;;12.80;99.90;;;;;;4994798;28;20526;-48
2023/03/26 12:17:59;;;;;;;5.63;3.00;;;12.00;99.90;;;;;;4994568;28;20733;-49
2023/03/26 12:20:37;;;;;;;5.40;3.03;;;12.80;99.90;;;;;;4994499;28;20438;-49
2023/03/26 12:23:06;;;;;;;5.07;3.30;;;12.60;99.90;;;;;;4994847;28;20514;-48
2023/03/26 12:25:35;;;;;;;4.13;3.10;;;12.50;99.90;;;;;;4994619;28;20457;-49
2023/03/26 12:28:03;;;;;;;6.80;2.50;;;13.00;99.90;;;;;;4994720;28;20452;-50
2023/03/26 12:30:32;;;;;;;9.43;3.57;;;12.80;99.90;;;;;;4994773;28;20441;-48
2023/03/26 12:33:03;;;;;;;4.40;2.43;;;12.50;99.90;;;;;;4993714;28;20450;-48
2023/03/26 12:35:33;;;;;;;7.83;3.37;;;12.20;99.90;;;;;;4994725;28;20531;-48
2023/03/26 12:38:20;;;;;;;6.93;3.77;;;12.50;99.90;;;;;;4994023;28;20451;-50
2023/03/26 12:40:48;;;;;;;6.83;3.33;;;12.50;99.90;;;;;;4994567;28;20466;-48
2023/03/26 12:43:22;;;;;;;7.03;3.07;;;12.40;99.90;;;;;;4993881;28;20477;-48
2023/03/26 12:45:53;;;;;;;12.17;2.90;;;12.30;99.90;;;;;;4994035;28;20460;-48
2023/03/26 12:48:24;;;;;;;4.73;2.50;;;12.40;99.90;;;;;;4993993;28;20462;-49
2023/03/26 12:51:03;;;;;;;7.30;3.00;;;12.80;99.90;;;;;;4976949;28;20490;-48
2023/03/26 12:53:56;;;;;;;4.63;2.23;;;12.60;99.90;;;;;;4994476;28;20490;-48
2023/03/26 12:56:35;;;;;;;7.93;3.60;;;13.00;99.90;;;;;;4993988;28;21031;-48
2023/03/26 12:59:37;;;;;;;5.97;2.53;;;13.00;99.90;;;;;;4993921;28;20814;-51
2023/03/26 13:02:28;;;;;;;8.93;2.67;;;13.10;99.90;;;;;;4993784;28;20441;-52
2023/03/26 13:05:12;;;;;;;4.67;2.33;;;13.20;99.90;;;;;;4993800;28;20485;-48
2023/03/26 13:07:56;;;;;;;6.93;1.87;;;13.80;99.90;;;;;;4994311;28;20449;-48
2023/03/26 13:10:48;;;;;;;3.63;2.37;;;13.20;99.90;;;;;;4993633;28;20437;-48
2023/03/26 13:13:46;;;;;;;6.90;2.40;;;13.40;99.90;;;;;;4994272;28;20444;-48
2023/03/26 13:16:20;;;;;;;4.43;2.17;;;13.50;99.90;;;;;;4993713;28;20546;-48
2023/03/26 13:18:52;;;;;;;3.00;1.90;;;14.00;99.90;;;;;;4993425;28;20448;-50
2023/03/26 13:21:30;;;;;;;7.37;2.30;;;13.80;99.90;;;;;;4993852;28;20437;-47
2023/03/26 13:24:06;;;;;;;6.00;2.47;;;13.70;99.90;;;;;;4993248;28;20911;-48
2023/03/26 13:26:51;;;;;;;6.33;2.30;;;13.60;99.80;;;;;;4993914;28;20440;-48
2023/03/26 13:29:25;;;;;;;6.83;2.50;;;14.00;99.60;;;;;;4992968;28;20875;-47
2023/03/26 13:32:03;;;;;;;5.83;1.50;;;13.80;99.40;;;;;;4994099;28;20487;-48
2023/03/26 13:34:38;;;;;;;4.20;2.63;;;13.70;99.20;;;;;;4993338;28;20820;-48
2023/03/26 13:37:14;;;;;;;5.83;1.80;;;13.80;99.20;;;;;;4993833;28;20759;-52
2023/03/26 13:39:56;;;;;;;6.20;2.23;;;13.70;98.70;;;;;;4992959;28;20898;-47
2023/03/26 13:42:36;;;;;;;4.40;2.00;;;12.90;98.10;;;;;;4993352;28;20452;-50
2023/03/26 13:45:12;;;;;;;5.10;1.90;;;13.00;98.00;;;;;;4975145;28;20572;-51